Time;durP1;ratioP1;P1;durP2;ratioP2;P2;SDS_P1;SDS_P2;PMS_P1;PMS_P2;Temp;Humidity;BMP_temperature;BMP_pressure;BME280_temperature;BME280_humidity;BME280_pressure;Samples;Min_cycle;Max_cycle;Signal;HPM_P1;HPM_P2
2023/06/08 00:02:23;;;;;;;4.25;3.70;;;;;;;20.05;42.89;101070.53;5011929;28;20054;-74
2023/06/08 00:04:54;;;;;;;5.65;4.18;;;;;;;20.02;42.86;101066.31;4969840;28;20081;-75
2023/06/08 00:07:26;;;;;;;8.27;4.00;;;;;;;20.00;42.62;101075.47;4974257;28;20041;-73
2023/06/08 00:09:58;;;;;;;6.28;4.20;;;;;;;19.94;42.47;101066.16;4990337;28;20088;-70
2023/06/08 00:12:28;;;;;;;8.65;3.63;;;;;;;19.88;42.54;101064.91;5005649;28;20113;-74
2023/06/08 00:14:59;;;;;;;9.23;3.53;;;;;;;19.85;42.38;101064.31;4993751;28;20563;-76
2023/06/08 00:17:28;;;;;;;8.20;4.63;;;;;;;19.82;42.51;101077.97;4988679;28;20121;-71
2023/06/08 00:20:08;;;;;;;4.82;3.97;;;;;;;19.79;42.56;101064.91;4985286;28;20054;-73
2023/06/08 00:22:39;;;;;;;11.55;4.03;;;;;;;19.75;42.54;101068.81;4990705;28;20030;-70
2023/06/08 00:25:10;;;;;;;9.65;4.00;;;;;;;19.69;42.56;101059.53;4968712;28;20114;-73
2023/06/08 00:27:40;;;;;;;5.70;4.20;;;;;;;19.64;42.48;101059.13;4973412;28;20192;-72
2023/06/08 00:30:15;;;;;;;6.18;3.50;;;;;;;19.59;42.28;101056.84;5003850;28;20067;-72
2023/06/08 00:32:43;;;;;;;8.70;4.43;;;;;;;19.56;42.33;101061.59;4962756;28;20058;-73
2023/06/08 00:35:11;;;;;;;5.80;4.18;;;;;;;19.52;42.26;101055.69;5001452;28;20053;-70
2023/06/08 00:37:41;;;;;;;9.05;4.13;;;;;;;19.47;42.60;101055.25;4997442;28;20064;-74
2023/06/08 00:40:11;;;;;;;5.80;4.22;;;;;;;19.40;42.31;101054.09;4993218;28;20555;-71
2023/06/08 00:42:39;;;;;;;7.50;3.88;;;;;;;19.35;42.72;101051.00;4984954;28;20145;-74
2023/06/08 00:45:11;;;;;;;13.32;4.30;;;;;;;19.29;43.06;101056.91;4999410;28;20054;-73
2023/06/08 00:47:47;;;;;;;6.68;4.32;;;;;;;19.21;43.15;101045.06;4955360;28;20038;-75
2023/06/08 00:50:20;;;;;;;9.75;5.05;;;;;;;19.15;43.31;101045.63;5000901;28;20069;-74
2023/06/08 00:52:49;;;;;;;7.25;4.93;;;;;;;19.10;44.08;101047.84;4993372;28;20607;-74
2023/06/08 00:55:19;;;;;;;9.57;4.82;;;;;;;19.05;44.27;101036.75;4984858;28;21242;-73
2023/06/08 00:57:48;;;;;;;10.90;5.78;;;;;;;19.00;44.40;101046.94;5002479;28;20222;-72
2023/06/08 01:00:24;;;;;;;10.90;5.55;;;;;;;18.96;44.83;101045.56;4990194;28;20061;-69
2023/06/08 01:02:57;;;;;;;9.45;4.78;;;;;;;18.91;45.43;101045.97;4982992;28;20124;-74
2023/06/08 01:05:24;;;;;;;8.80;5.90;;;;;;;18.87;45.33;101041.03;5006167;28;20073;-66
2023/06/08 01:08:11;;;;;;;10.95;5.68;;;;;;;18.82;45.71;101043.22;4990795;28;20108;-70
2023/06/08 01:11:11;;;;;;;10.40;5.60;;;;;;;18.74;45.87;101040.41;4989823;28;20068;-74
2023/06/08 01:13:57;;;;;;;8.38;5.65;;;;;;;18.71;45.85;101045.00;5008583;28;20092;-72
2023/06/08 01:16:36;;;;;;;9.43;5.75;;;;;;;18.67;46.35;101040.88;4992083;28;20084;-71
2023/06/08 01:19:11;;;;;;;8.05;5.05;;;;;;;18.63;46.64;101047.44;4986638;28;20100;-69
2023/06/08 01:21:57;;;;;;;10.13;5.82;;;;;;;18.60;47.27;101047.75;4992178;28;20543;-75
2023/06/08 01:24:30;;;;;;;8.93;5.75;;;;;;;18.57;47.46;101040.00;4990395;28;20077;-71
2023/06/08 01:26:59;;;;;;;9.82;5.32;;;;;;;18.54;47.68;101036.75;4996099;28;20053;-70
2023/06/08 01:29:27;;;;;;;8.15;5.50;;;;;;;18.51;47.74;101037.88;4993336;28;20097;-73
2023/06/08 01:32:02;;;;;;;9.35;4.85;;;;;;;18.49;48.19;101042.47;4987708;28;20484;-70
2023/06/08 01:34:35;;;;;;;12.45;5.25;;;;;;;18.44;48.30;101031.34;5008981;28;20057;-72
2023/06/08 01:37:22;;;;;;;8.63;4.75;;;;;;;18.42;48.46;101033.31;4956759;28;20057;-73
2023/06/08 01:39:59;;;;;;;11.18;6.00;;;;;;;18.38;48.40;101031.88;4990645;28;20050;-74
2023/06/08 01:42:28;;;;;;;8.45;4.85;;;;;;;18.35;48.20;101021.47;5008235;28;20061;-72
2023/06/08 01:44:59;;;;;;;6.47;4.35;;;;;;;18.34;48.26;101031.28;5015163;28;20104;-72
2023/06/08 01:47:56;;;;;;;8.88;4.75;;;;;;;18.31;48.20;101022.72;5007373;28;20041;-72
2023/06/08 01:50:31;;;;;;;6.70;4.68;;;;;;;18.27;48.44;101022.13;4974881;28;20058;-72
2023/06/08 01:53:02;;;;;;;11.45;5.07;;;;;;;18.23;48.40;101018.03;4997707;28;20454;-72
2023/06/08 01:55:35;;;;;;;9.65;4.82;;;;;;;18.19;48.45;101024.59;5000390;28;20085;-72
2023/06/08 01:58:04;;;;;;;8.60;4.78;;;;;;;18.14;48.21;101019.66;4989386;28;20101;-70
2023/06/08 02:00:45;;;;;;;7.60;5.07;;;;;;;18.11;47.99;101014.59;5008059;28;20057;-74
2023/06/08 02:03:19;;;;;;;6.65;4.93;;;;;;;18.09;48.11;101018.34;4975969;28;20065;-72
2023/06/08 02:10:08;;;;;;;10.00;5.10;;;;;;;17.95;48.70;101012.38;4996599;28;20049;-73
2023/06/08 02:12:36;;;;;;;6.07;5.45;;;;;;;17.91;48.49;101018.91;5024762;28;20129;-71
2023/06/08 02:15:08;;;;;;;9.13;5.65;;;;;;;17.89;48.53;101012.03;4994262;28;20050;-72
2023/06/08 02:17:39;;;;;;;7.38;5.00;;;;;;;17.85;48.68;101010.59;4972357;28;20045;-71
2023/06/08 02:20:09;;;;;;;9.75;5.75;;;;;;;17.79;48.73;101017.28;4989084;28;20034;-71
2023/06/08 02:22:45;;;;;;;11.48;5.55;;;;;;;17.75;48.99;101007.03;5006091;28;20061;-72
2023/06/08 02:25:15;;;;;;;12.88;5.72;;;;;;;17.71;49.16;101014.38;5011101;28;20493;-69
2023/06/08 02:27:44;;;;;;;11.63;5.57;;;;;;;17.66;48.96;101012.09;4974911;28;20076;-71
2023/06/08 02:30:21;;;;;;;8.73;5.43;;;;;;;17.63;49.03;101017.66;4991101;28;20116;-70
2023/06/08 02:32:53;;;;;;;8.40;5.85;;;;;;;17.59;49.26;101015.38;4991092;28;20053;-68
2023/06/08 02:35:22;;;;;;;9.65;6.57;;;;;;;17.56;49.43;101012.97;4992560;28;20057;-69
2023/06/08 02:37:51;;;;;;;9.00;5.78;;;;;;;17.51;49.63;101013.34;4974657;28;20038;-72
2023/06/08 02:40:19;;;;;;;8.70;5.80;;;;;;;17.48;49.60;101004.78;4987465;28;20444;-70
2023/06/08 02:42:49;;;;;;;11.45;6.00;;;;;;;17.45;49.49;101016.53;4993989;28;20050;-69
2023/06/08 02:45:23;;;;;;;6.67;5.53;;;;;;;17.44;49.15;101009.50;4990199;28;20072;-72
2023/06/08 02:47:53;;;;;;;10.75;5.35;;;;;;;17.44;49.56;101014.84;5003132;28;20129;-74
2023/06/08 02:50:24;;;;;;;10.63;5.68;;;;;;;17.40;49.61;101016.06;4995560;28;20101;-70
2023/06/08 02:52:53;;;;;;;10.18;5.38;;;;;;;17.38;49.62;101008.22;4970046;28;20055;-65
2023/06/08 02:55:20;;;;;;;8.13;5.22;;;;;;;17.38;49.82;101018.84;4971500;28;20096;-72
2023/06/08 02:57:52;;;;;;;6.97;4.60;;;;;;;17.36;49.47;101012.78;5004654;28;20125;-71
2023/06/08 03:00:22;;;;;;;9.05;5.70;;;;;;;17.37;49.32;101010.97;4989560;28;20045;-72
2023/06/08 03:02:49;;;;;;;9.85;5.60;;;;;;;17.39;49.54;101006.38;5007702;28;20081;-65
2023/06/08 03:05:17;;;;;;;11.18;5.68;;;;;;;17.40;49.39;101005.41;5005209;28;20046;-72
2023/06/08 03:07:46;;;;;;;7.20;4.88;;;;;;;17.39;49.14;101004.56;4970752;28;20563;-70
2023/06/08 03:10:13;;;;;;;9.65;5.82;;;;;;;17.40;48.81;101002.75;4988782;28;20081;-71
2023/06/08 03:12:41;;;;;;;7.05;5.97;;;;;;;17.43;48.81;101007.84;4996923;28;20046;-73
2023/06/08 03:15:11;;;;;;;8.95;5.80;;;;;;;17.44;48.65;100999.72;5008775;28;20133;-73
2023/06/08 03:17:42;;;;;;;6.88;4.82;;;;;;;17.42;48.17;101001.63;4983519;28;20066;-69
2023/06/08 03:20:11;;;;;;;9.45;5.60;;;;;;;17.41;48.54;101005.28;4988671;28;20141;-67
2023/06/08 03:22:41;;;;;;;8.15;5.18;;;;;;;17.39;48.27;101003.72;5001521;28;20077;-72
2023/06/08 03:25:08;;;;;;;7.25;4.82;;;;;;;17.41;48.33;101004.44;5004542;28;20096;-69
2023/06/08 03:27:36;;;;;;;7.65;5.70;;;;;;;17.43;48.09;101008.66;4985376;28;20133;-70
2023/06/08 03:30:03;;;;;;;7.25;5.05;;;;;;;17.44;48.09;101012.19;5006797;28;20056;-72
2023/06/08 03:32:32;;;;;;;7.88;4.97;;;;;;;17.45;48.12;101013.84;5002234;28;20084;-72
2023/06/08 03:35:00;;;;;;;7.15;5.38;;;;;;;17.45;48.05;101005.88;4985284;28;20684;-67
2023/06/08 03:37:29;;;;;;;9.90;5.22;;;;;;;17.47;47.93;101003.91;4979002;28;20459;-69
2023/06/08 03:39:56;;;;;;;6.70;4.40;;;;;;;17.51;47.97;101004.50;5002525;28;20050;-69
2023/06/08 03:42:24;;;;;;;7.00;5.07;;;;;;;17.52;48.02;101006.22;4998578;28;20504;-71
2023/06/08 03:44:52;;;;;;;11.25;5.47;;;;;;;17.49;47.76;101002.00;4979057;28;20145;-74
2023/06/08 03:47:20;;;;;;;7.53;5.25;;;;;;;17.51;47.87;101000.03;5001995;28;20137;-70
2023/06/08 03:49:50;;;;;;;6.50;4.82;;;;;;;17.52;47.73;101001.75;4989004;28;20129;-71
2023/06/08 03:52:17;;;;;;;6.25;4.40;;;;;;;17.54;47.72;100997.13;5001965;28;20084;-72
2023/06/08 03:54:45;;;;;;;7.97;5.25;;;;;;;17.60;47.47;101007.25;4999798;28;20062;-73
2023/06/08 03:57:17;;;;;;;7.53;4.82;;;;;;;17.66;47.02;101003.28;4994681;28;20154;-74
2023/06/08 03:59:45;;;;;;;7.68;4.80;;;;;;;17.71;46.86;101012.56;5005847;28;20404;-71
2023/06/08 04:02:15;;;;;;;7.07;4.80;;;;;;;17.76;46.95;101006.88;4971995;28;20519;-68
2023/06/08 04:04:48;;;;;;;11.23;5.22;;;;;;;17.82;46.67;101014.34;5004647;28;20100;-71
2023/06/08 04:07:20;;;;;;;8.38;5.13;;;;;;;17.84;46.51;101012.44;4991357;28;20076;-70
2023/06/08 04:09:50;;;;;;;11.25;6.30;;;;;;;17.88;45.88;101011.22;4987161;28;20038;-72
2023/06/08 04:12:19;;;;;;;8.80;4.95;;;;;;;17.91;45.79;101010.94;4988907;28;20457;-68
2023/06/08 04:14:48;;;;;;;6.90;4.88;;;;;;;17.96;45.68;101006.06;5010029;28;20172;-69
2023/06/08 04:17:15;;;;;;;9.80;5.78;;;;;;;18.02;45.28;101019.88;4974434;28;20289;-67
2023/06/08 04:20:13;;;;;;;7.38;4.78;;;;;;;18.07;45.07;101015.81;4991529;28;20229;-69
2023/06/08 04:22:44;;;;;;;10.07;5.30;;;;;;;18.15;44.85;101017.84;5004215;28;20081;-72
2023/06/08 04:25:11;;;;;;;10.73;6.10;;;;;;;18.20;44.66;101016.47;5005596;28;20567;-73
2023/06/08 04:27:39;;;;;;;8.52;5.65;;;;;;;18.28;44.52;101018.50;4985319;28;20071;-68
2023/06/08 04:30:10;;;;;;;11.43;5.03;;;;;;;18.37;44.55;101016.84;4998524;28;20085;-67
2023/06/08 04:32:47;;;;;;;9.73;4.78;;;;;;;18.43;44.49;101011.84;5016074;28;20038;-69
2023/06/08 04:35:15;;;;;;;11.68;5.78;;;;;;;18.49;44.26;101013.13;4996555;28;20456;-69
2023/06/08 04:37:47;;;;;;;10.60;5.25;;;;;;;18.54;44.01;101012.75;4969837;28;20050;-72
2023/06/08 04:40:19;;;;;;;8.70;5.40;;;;;;;18.61;43.80;101011.25;5004424;28;20100;-74
2023/06/08 04:42:47;;;;;;;8.73;5.60;;;;;;;18.67;43.40;101008.03;4990605;28;20141;-68
2023/06/08 04:45:18;;;;;;;7.47;4.50;;;;;;;18.74;42.88;101006.56;4976578;28;20562;-71
2023/06/08 04:47:47;;;;;;;11.90;5.15;;;;;;;18.85;42.54;101013.63;4990721;28;20034;-70
2023/06/08 04:50:16;;;;;;;7.38;4.70;;;;;;;18.94;41.95;101010.16;5019548;28;20089;-70
2023/06/08 04:52:51;;;;;;;7.07;5.38;;;;;;;19.01;41.89;101011.31;5005056;28;20061;-68
2023/06/08 04:55:23;;;;;;;8.95;5.07;;;;;;;19.10;41.27;101013.16;4989452;28;20448;-68
2023/06/08 04:57:57;;;;;;;7.82;4.50;;;;;;;19.19;41.21;101015.00;4993059;28;20107;-67
2023/06/08 05:00:25;;;;;;;5.72;4.53;;;;;;;19.25;40.72;101012.78;4995544;28;20145;-69
2023/06/08 05:02:52;;;;;;;6.18;4.40;;;;;;;19.29;40.47;101014.19;4993221;28;20070;-71
2023/06/08 05:05:25;;;;;;;8.23;4.47;;;;;;;19.32;40.50;101013.88;4990984;28;20113;-68
2023/06/08 05:07:57;;;;;;;9.38;4.90;;;;;;;19.34;39.95;101010.13;4999320;28;20051;-67
2023/06/08 05:10:27;;;;;;;7.25;4.57;;;;;;;19.38;39.87;101013.38;4977174;28;20045;-69
2023/06/08 05:13:06;;;;;;;16.13;5.03;;;;;;;19.39;39.67;101010.53;5006931;28;20100;-69
2023/06/08 05:15:33;;;;;;;7.97;4.55;;;;;;;19.42;39.60;101002.28;4977789;28;20058;-73
2023/06/08 05:18:01;;;;;;;10.90;4.78;;;;;;;19.47;39.61;101005.34;4996353;28;20524;-70
2023/06/08 05:20:31;;;;;;;9.63;5.18;;;;;;;19.51;39.40;100997.09;4993305;28;20128;-70
2023/06/08 05:23:00;;;;;;;8.48;4.75;;;;;;;19.52;39.26;101002.28;4999923;28;20073;-72
2023/06/08 05:25:29;;;;;;;10.07;5.18;;;;;;;19.57;38.93;101007.19;4981946;28;20084;-73
2023/06/08 05:28:04;;;;;;;5.85;4.80;;;;;;;19.62;38.99;101002.31;5008029;28;20447;-70
2023/06/08 05:30:32;;;;;;;7.88;4.85;;;;;;;19.66;38.66;101001.88;4994820;28;20137;-73
2023/06/08 05:33:10;;;;;;;7.03;4.57;;;;;;;19.70;38.88;101008.63;4981031;28;20045;-67
2023/06/08 05:35:39;;;;;;;8.98;5.18;;;;;;;19.76;38.87;101012.56;5005929;28;20037;-72
2023/06/08 05:38:08;;;;;;;9.98;5.20;;;;;;;19.86;38.98;101016.13;5004963;28;20049;-68
2023/06/08 05:40:37;;;;;;;9.57;4.97;;;;;;;20.03;38.94;101011.84;4971628;28;20140;-71
2023/06/08 05:43:05;;;;;;;7.70;4.47;;;;;;;20.21;38.74;101010.16;4998519;28;20153;-73
2023/06/08 05:45:33;;;;;;;9.02;4.53;;;;;;;20.33;39.10;101010.84;4998990;28;20092;-71
2023/06/08 05:48:01;;;;;;;13.18;5.15;;;;;;;20.50;38.61;101013.78;4995215;28;20068;-73
2023/06/08 05:50:29;;;;;;;6.10;4.45;;;;;;;20.67;38.40;101010.38;5005215;28;20053;-71
2023/06/08 05:52:59;;;;;;;11.43;4.82;;;;;;;20.84;38.10;101014.06;5001586;28;20329;-70
2023/06/08 05:55:30;;;;;;;5.47;4.22;;;;;;;21.00;38.22;101011.63;4984185;28;20503;-69
2023/06/08 05:58:00;;;;;;;8.07;5.45;;;;;;;21.16;37.52;101011.81;4997872;28;20058;-70
2023/06/08 06:00:27;;;;;;;10.13;4.97;;;;;;;21.32;37.62;101013.03;5001749;28;20496;-73
2023/06/08 06:02:55;;;;;;;11.18;4.82;;;;;;;21.48;37.07;101013.22;4991214;28;20045;-67
2023/06/08 06:05:29;;;;;;;13.73;5.00;;;;;;;21.63;36.90;101014.34;4994518;28;20052;-69
2023/06/08 06:07:58;;;;;;;13.60;4.65;;;;;;;21.78;37.19;101011.97;4979233;28;20618;-70
2023/06/08 06:10:27;;;;;;;8.77;4.43;;;;;;;21.95;36.50;101015.66;4987854;28;20145;-73
2023/06/08 06:12:56;;;;;;;7.78;4.18;;;;;;;22.07;36.42;101008.22;4990461;28;20068;-73
2023/06/08 06:15:25;;;;;;;6.97;3.60;;;;;;;22.19;36.31;101005.13;4993245;28;20539;-67
2023/06/08 06:17:59;;;;;;;21.35;4.70;;;;;;;22.29;36.20;101002.38;4979220;28;20050;-70
2023/06/08 06:20:29;;;;;;;9.98;4.53;;;;;;;22.39;35.75;101010.31;5003282;28;20471;-72
2023/06/08 06:22:57;;;;;;;9.57;4.63;;;;;;;22.51;35.35;101009.03;4998088;28;21480;-68
2023/06/08 06:25:26;;;;;;;8.55;4.25;;;;;;;22.65;35.12;101004.91;5002328;28;20085;-72
2023/06/08 06:27:54;;;;;;;9.05;4.20;;;;;;;22.84;34.57;101014.59;4972828;28;20791;-72
2023/06/08 06:30:21;;;;;;;13.93;4.57;;;;;;;23.03;34.11;101017.03;4985785;28;20137;-72
2023/06/08 06:32:49;;;;;;;5.15;3.33;;;;;;;23.25;33.69;101016.44;5001147;28;20133;-71
2023/06/08 06:35:16;;;;;;;12.55;4.80;;;;;;;23.41;32.98;101014.81;5003139;28;20780;-69
2023/06/08 06:37:44;;;;;;;9.10;4.30;;;;;;;23.50;32.68;101013.81;4993244;28;20489;-72
2023/06/08 06:40:13;;;;;;;9.93;4.38;;;;;;;23.60;32.52;101013.69;5003221;28;20060;-70
2023/06/08 06:42:41;;;;;;;13.70;4.65;;;;;;;23.66;32.55;101013.88;5002158;28;20097;-71
2023/06/08 06:45:11;;;;;;;8.30;3.80;;;;;;;23.67;32.36;101026.31;4999999;28;20077;-68
2023/06/08 06:47:42;;;;;;;7.15;3.47;;;;;;;23.76;32.42;101021.78;5002500;28;20465;-73
2023/06/08 06:50:11;;;;;;;9.65;4.18;;;;;;;23.78;32.24;101027.84;5004226;28;20152;-71
2023/06/08 06:52:38;;;;;;;6.82;3.80;;;;;;;23.90;32.21;101026.50;5004465;28;20081;-73
2023/06/08 06:55:06;;;;;;;5.70;3.40;;;;;;;24.06;32.12;101028.38;4989443;28;20574;-69
2023/06/08 06:57:34;;;;;;;6.75;4.45;;;;;;;24.21;31.91;101034.72;4992288;28;20086;-73
2023/06/08 07:00:08;;;;;;;6.63;3.88;;;;;;;24.29;31.87;101031.19;5015773;28;20607;-73
2023/06/08 07:02:37;;;;;;;4.75;3.80;;;;;;;24.36;31.82;101034.03;5003325;28;20369;-72
2023/06/08 07:05:10;;;;;;;9.05;4.22;;;;;;;24.52;31.92;101036.75;4997189;28;20452;-74
2023/06/08 07:07:38;;;;;;;8.88;4.07;;;;;;;24.62;31.77;101032.00;4976377;28;20064;-71
2023/06/08 07:10:06;;;;;;;14.80;4.60;;;;;;;24.79;31.91;101031.97;5003758;28;20093;-71
2023/06/08 07:12:34;;;;;;;8.73;4.53;;;;;;;24.96;31.41;101036.28;5003051;28;20062;-74
2023/06/08 07:15:04;;;;;;;10.00;4.53;;;;;;;25.14;31.30;101028.00;4990447;28;20046;-72
2023/06/08 07:17:31;;;;;;;9.75;4.20;;;;;;;25.23;31.38;101027.78;4977539;28;20141;-73
2023/06/08 07:19:59;;;;;;;8.43;3.63;;;;;;;25.25;31.82;101027.59;5000953;28;20083;-74
2023/06/08 07:22:28;;;;;;;7.75;4.43;;;;;;;25.31;31.79;101028.72;4957277;28;20168;-74
2023/06/08 07:25:15;;;;;;;5.18;4.10;;;;;;;25.47;31.75;101026.78;5002519;28;20405;-73
2023/06/08 07:28:04;;;;;;;10.02;3.97;;;;;;;25.63;31.99;101025.88;4992090;28;20625;-74
2023/06/08 07:30:34;;;;;;;5.18;4.50;;;;;;;25.72;31.83;101030.19;4993458;28;20116;-72
2023/06/08 07:33:03;;;;;;;11.18;4.20;;;;;;;25.79;31.65;101034.88;4987293;28;20049;-74
2023/06/08 07:35:32;;;;;;;7.72;4.88;;;;;;;25.77;32.01;101026.97;4992024;28;20460;-74
2023/06/08 07:38:01;;;;;;;5.53;3.45;;;;;;;25.84;31.42;101022.53;5006920;28;20037;-73
2023/06/08 07:40:29;;;;;;;9.70;4.50;;;;;;;25.93;31.15;101017.91;5005102;28;20432;-76
2023/06/08 07:43:01;;;;;;;8.05;3.80;;;;;;;25.99;31.44;101022.59;4995333;28;20136;-73
2023/06/08 07:45:29;;;;;;;5.03;3.90;;;;;;;26.04;30.96;101022.88;4979196;28;20057;-72
2023/06/08 07:47:58;;;;;;;8.35;4.43;;;;;;;26.09;31.46;101017.78;4976530;28;20046;-75
2023/06/08 07:50:26;;;;;;;11.20;4.25;;;;;;;26.09;30.80;101019.63;4966987;28;20045;-74
2023/06/08 07:52:53;;;;;;;10.48;4.55;;;;;;;25.97;30.52;101019.22;4998208;28;20101;-71
2023/06/08 07:55:21;;;;;;;7.63;4.20;;;;;;;26.00;30.95;101019.69;4990765;28;20050;-73
2023/06/08 07:57:50;;;;;;;4.40;3.42;;;;;;;26.04;30.61;101022.88;4984742;28;20054;-72
2023/06/08 08:00:19;;;;;;;7.53;3.90;;;;;;;26.11;30.49;101021.13;5001966;28;20090;-73
2023/06/08 08:02:46;;;;;;;10.77;4.10;;;;;;;26.17;30.73;101023.09;4991353;28;20155;-73
2023/06/08 08:05:15;;;;;;;11.00;4.20;;;;;;;26.25;30.63;101019.47;5002436;28;20058;-73
2023/06/08 08:07:43;;;;;;;8.68;4.20;;;;;;;26.27;31.05;101020.97;4993132;28;20045;-73
2023/06/08 08:10:12;;;;;;;11.63;4.07;;;;;;;26.38;30.84;101011.56;5003430;28;20054;-73
2023/06/08 08:12:42;;;;;;;6.32;3.97;;;;;;;26.47;30.34;101013.19;4971707;28;20577;-72
2023/06/08 08:15:10;;;;;;;5.07;3.20;;;;;;;26.51;30.44;101017.22;4984046;28;20065;-73
2023/06/08 08:17:37;;;;;;;9.52;4.07;;;;;;;26.49;30.16;101008.47;5002645;28;20115;-72
2023/06/08 08:20:06;;;;;;;9.68;4.43;;;;;;;26.52;30.13;101009.94;4989400;28;20120;-74
2023/06/08 08:22:35;;;;;;;9.55;3.63;;;;;;;26.51;30.47;101021.78;4974917;28;20082;-71
2023/06/08 08:25:03;;;;;;;11.02;4.30;;;;;;;26.60;30.51;101015.25;4994341;28;20049;-73
2023/06/08 08:27:31;;;;;;;6.18;4.20;;;;;;;26.68;29.98;101015.19;4992413;28;20109;-73
2023/06/08 08:30:00;;;;;;;8.95;4.22;;;;;;;26.70;29.82;101013.16;5004303;28;20046;-70
2023/06/08 08:32:27;;;;;;;5.55;3.72;;;;;;;26.75;29.93;101015.28;4986334;28;20055;-72
2023/06/08 08:34:57;;;;;;;10.98;3.50;;;;;;;26.89;29.99;101021.69;5009490;28;20701;-72
2023/06/08 08:37:24;;;;;;;6.90;4.35;;;;;;;26.99;30.09;101016.84;5003666;28;20050;-74
2023/06/08 08:39:52;;;;;;;7.57;3.67;;;;;;;27.06;29.72;101016.91;5002613;28;20065;-70
2023/06/08 08:42:33;;;;;;;7.10;4.03;;;;;;;27.17;29.64;101016.47;4999912;28;20121;-69
2023/06/08 08:45:04;;;;;;;11.48;4.53;;;;;;;27.24;29.82;101010.13;5005220;28;20108;-72
2023/06/08 08:47:32;;;;;;;9.75;4.40;;;;;;;27.36;29.97;101017.72;4997109;28;20145;-73
2023/06/08 08:50:06;;;;;;;7.63;3.97;;;;;;;27.43;30.37;101019.50;5001267;28;20466;-73
2023/06/08 08:52:37;;;;;;;17.33;4.78;;;;;;;27.50;30.07;101016.84;5013279;28;20054;-73
2023/06/08 08:55:05;;;;;;;8.55;4.28;;;;;;;27.55;29.80;101010.84;4990055;28;20438;-71
2023/06/08 08:57:37;;;;;;;5.40;4.07;;;;;;;27.61;29.62;101010.09;4994236;28;20053;-71
2023/06/08 09:00:09;;;;;;;8.25;4.40;;;;;;;27.63;29.73;101018.84;4979391;28;20150;-74
2023/06/08 09:02:37;;;;;;;5.38;3.53;;;;;;;27.70;29.45;101012.47;5000961;28;20122;-74
2023/06/08 09:05:05;;;;;;;8.10;4.10;;;;;;;27.75;29.19;100999.25;5001581;28;20150;-71
2023/06/08 09:07:32;;;;;;;5.57;3.83;;;;;;;27.82;29.18;101004.69;4986255;28;20500;-68
2023/06/08 09:10:13;;;;;;;10.40;4.00;;;;;;;27.86;28.83;100999.75;4992285;28;20056;-69
2023/06/08 09:12:46;;;;;;;5.40;3.60;;;;;;;27.93;28.58;101008.78;5005909;28;20466;-69
2023/06/08 09:15:28;;;;;;;6.70;3.85;;;;;;;28.01;27.91;101005.94;4975126;28;20053;-73
2023/06/08 09:17:57;;;;;;;6.03;3.78;;;;;;;28.12;28.13;101001.84;4990354;28;20861;-72
2023/06/08 09:20:32;;;;;;;8.27;4.22;;;;;;;28.27;28.05;101008.81;4990042;28;20454;-72
2023/06/08 09:26:56;;;;;;;4.15;3.33;;;;;;;28.68;27.22;100999.94;5001667;28;20049;-74
2023/06/08 09:29:44;;;;;;;5.00;3.63;;;;;;;28.83;27.12;100994.41;4987549;28;20148;-72
2023/06/08 09:32:25;;;;;;;8.45;3.85;;;;;;;29.00;27.10;101011.22;5000776;28;20060;-75
2023/06/08 09:35:04;;;;;;;4.97;3.22;;;;;;;29.13;26.54;101005.81;4978296;28;20061;-71
2023/06/08 09:37:37;;;;;;;5.30;3.80;;;;;;;29.32;26.55;101003.41;4992188;28;20535;-71
2023/06/08 09:40:05;;;;;;;10.23;3.95;;;;;;;29.45;26.87;100990.69;5001302;28;20104;-73
2023/06/08 09:42:43;;;;;;;8.45;3.90;;;;;;;29.56;26.77;100988.44;4984803;28;20093;-73
2023/06/08 09:45:15;;;;;;;6.00;3.92;;;;;;;29.69;26.85;100994.72;5002785;28;20875;-73
2023/06/08 09:47:44;;;;;;;8.50;3.60;;;;;;;29.78;26.29;100984.50;5003601;28;20152;-72
2023/06/08 09:50:12;;;;;;;8.23;3.95;;;;;;;29.84;26.19;100982.81;4989029;28;20050;-73
2023/06/08 09:52:41;;;;;;;5.82;3.47;;;;;;;29.85;26.07;100987.22;4986010;28;20099;-73
2023/06/08 09:55:10;;;;;;;8.68;4.00;;;;;;;29.89;26.31;100997.44;4971675;28;20512;-73
2023/06/08 09:57:39;;;;;;;5.93;3.42;;;;;;;29.88;26.56;100989.50;5018037;28;20050;-72
2023/06/08 10:02:53;;;;;;;6.47;3.75;;;;;;;29.84;26.08;100980.94;4996851;28;20082;-72
2023/06/08 10:05:23;;;;;;;5.47;3.40;;;;;;;29.77;25.85;100991.81;4981040;28;20507;-72
2023/06/08 10:07:52;;;;;;;4.40;3.42;;;;;;;29.80;26.56;100979.69;4991480;28;20054;-73
2023/06/08 10:10:37;;;;;;;8.25;3.28;;;;;;;29.87;26.13;100979.72;4990342;28;20065;-73
2023/06/08 10:13:05;;;;;;;5.68;3.58;;;;;;;29.89;25.82;100983.88;5022948;28;20074;-72
2023/06/08 10:15:34;;;;;;;3.30;3.00;;;;;;;29.94;26.29;100980.53;5004194;28;20058;-73
2023/06/08 10:18:06;;;;;;;8.10;4.50;;;;;;;29.98;26.33;100977.19;4972790;28;20081;-73
2023/06/08 10:20:35;;;;;;;6.28;3.60;;;;;;;30.02;26.01;100977.59;5005074;28;20046;-74
2023/06/08 10:23:04;;;;;;;5.32;3.90;;;;;;;30.07;25.95;100974.25;4986014;28;20077;-73
2023/06/08 10:25:33;;;;;;;6.78;4.03;;;;;;;30.13;26.48;100960.69;4981401;28;20509;-73
2023/06/08 10:28:07;;;;;;;8.52;4.07;;;;;;;30.18;25.98;100970.94;5007372;28;20053;-75
2023/06/08 10:30:42;;;;;;;4.22;3.53;;;;;;;30.25;26.02;100967.16;4967871;28;20611;-73
2023/06/08 10:33:10;;;;;;;5.22;3.60;;;;;;;30.34;26.08;100965.06;4986025;28;20534;-74
2023/06/08 10:35:43;;;;;;;8.20;3.90;;;;;;;30.46;25.69;100965.25;4990273;28;20081;-73
2023/06/08 10:38:12;;;;;;;5.43;4.25;;;;;;;30.61;25.51;100967.72;4985179;28;20186;-73
2023/06/08 10:50:53;;;;;;;4.93;3.78;;;;;;;31.29;24.33;100954.47;5006041;28;20053;-72
2023/06/08 10:53:40;;;;;;;5.57;3.58;;;;;;;31.21;24.52;100949.28;5001726;28;20103;-73
2023/06/08 10:56:08;;;;;;;8.02;4.47;;;;;;;31.23;25.05;100950.72;5014268;28;20041;-72
2023/06/08 10:58:50;;;;;;;5.35;3.97;;;;;;;31.13;24.73;100953.09;5003567;28;20064;-73
2023/06/08 11:01:20;;;;;;;5.55;3.42;;;;;;;31.21;24.67;100952.00;4994417;28;20046;-72
2023/06/08 11:03:48;;;;;;;4.68;3.72;;;;;;;31.34;24.39;100949.25;4999565;28;20057;-78
2023/06/08 11:06:29;;;;;;;10.15;4.32;;;;;;;31.41;24.55;100944.56;4999118;28;20046;-76
2023/06/08 11:09:01;;;;;;;6.35;3.92;;;;;;;31.54;24.52;100934.66;4997856;28;20050;-74
2023/06/08 11:11:35;;;;;;;11.98;4.00;;;;;;;31.50;24.27;100942.41;4982942;28;20077;-72
2023/06/08 11:14:02;;;;;;;5.65;3.80;;;;;;;31.54;24.67;100940.09;5010717;28;20046;-73
2023/06/08 11:16:30;;;;;;;6.35;3.60;;;;;;;31.77;24.38;100940.31;5007267;28;20061;-74
2023/06/08 11:19:09;;;;;;;9.75;4.00;;;;;;;32.07;24.66;100931.50;5008864;28;20596;-73
2023/06/08 11:21:37;;;;;;;5.07;3.75;;;;;;;32.33;23.53;100930.38;4979625;28;20452;-73
2023/06/08 11:24:10;;;;;;;9.13;3.60;;;;;;;32.53;23.19;100938.38;5015310;28;20109;-73
2023/06/08 11:26:37;;;;;;;4.60;3.75;;;;;;;32.55;23.30;100930.78;5010884;28;20480;-72
2023/06/08 11:29:20;;;;;;;6.07;3.53;;;;;;;32.54;23.11;100920.94;4996293;28;20065;-67
2023/06/08 11:31:51;;;;;;;9.23;3.90;;;;;;;32.66;22.32;100925.41;4978021;28;20133;-72
2023/06/08 11:34:19;;;;;;;7.85;4.00;;;;;;;32.75;22.26;100917.75;4991266;28;20050;-71
2023/06/08 11:36:49;;;;;;;7.32;4.13;;;;;;;32.94;22.74;100918.56;4995218;28;20129;-72
2023/06/08 11:39:18;;;;;;;5.82;3.90;;;;;;;33.15;22.90;100917.22;5013169;28;20061;-73
2023/06/08 11:41:46;;;;;;;8.48;4.20;;;;;;;33.33;22.50;100917.16;4997475;28;20061;-70
2023/06/08 11:44:15;;;;;;;5.38;4.47;;;;;;;33.42;21.76;100914.94;4975664;28;20054;-71
2023/06/08 11:46:42;;;;;;;8.48;4.05;;;;;;;33.36;21.50;100904.94;4996570;28;20069;-74
2023/06/08 11:49:12;;;;;;;5.10;3.92;;;;;;;33.00;21.62;100904.00;4990490;28;20517;-73
2023/06/08 11:51:48;;;;;;;8.23;4.07;;;;;;;32.85;21.78;100895.38;4982684;28;20125;-72
2023/06/08 11:54:17;;;;;;;8.07;4.88;;;;;;;32.76;22.27;100900.31;5008676;28;20132;-73
2023/06/08 11:56:47;;;;;;;5.13;3.63;;;;;;;32.86;22.58;100894.31;4989639;28;21934;-73
2023/06/08 11:59:16;;;;;;;11.13;4.55;;;;;;;33.01;22.23;100898.34;4992962;28;20093;-72
2023/06/08 12:01:58;;;;;;;6.28;4.07;;;;;;;33.08;21.67;100898.22;4994850;28;20132;-73
2023/06/08 12:04:31;;;;;;;6.93;4.18;;;;;;;33.32;21.94;100887.34;5007565;28;20035;-69